sensor_id;sensor_type;location;lat;lon;timestamp;pressure;altitude;pressure_sealevel;temperature
64600;BMP280;6553;48.412;9.514;2022-11-22T00:00:14;71461.81;;;17.94
64600;BMP280;6553;48.412;9.514;2022-11-22T00:02:40;71461.28;;;17.93
64600;BMP280;6553;48.412;9.514;2022-11-22T00:05:06;71455.75;;;17.93
64600;BMP280;6553;48.412;9.514;2022-11-22T00:07:32;71457.47;;;17.92
64600;BMP280;6553;48.412;9.514;2022-11-22T00:09:58;71460.22;;;17.92
64600;BMP280;6553;48.412;9.514;2022-11-22T00:12:24;71456.94;;;17.92
64600;BMP280;6553;48.412;9.514;2022-11-22T00:14:49;71453.09;;;17.91
64600;BMP280;6553;48.412;9.514;2022-11-22T00:17:15;71459.69;;;17.92
64600;BMP280;6553;48.412;9.514;2022-11-22T00:19:41;71453.63;;;17.91
64600;BMP280;6553;48.412;9.514;2022-11-22T00:22:07;71457.97;;;17.93
64600;BMP280;6553;48.412;9.514;2022-11-22T00:24:33;71459.69;;;17.92
64600;BMP280;6553;48.412;9.514;2022-11-22T00:26:59;71455.22;;;17.93
64600;BMP280;6553;48.412;9.514;2022-11-22T00:29:25;71458.50;;;17.93
64600;BMP280;6553;48.412;9.514;2022-11-22T00:31:51;71459.69;;;17.92
64600;BMP280;6553;48.412;9.514;2022-11-22T00:34:17;71456.28;;;17.94
64600;BMP280;6553;48.412;9.514;2022-11-22T00:36:42;71455.75;;;17.93
64600;BMP280;6553;48.412;9.514;2022-11-22T00:39:08;71462.97;;;17.92
64600;BMP280;6553;48.412;9.514;2022-11-22T00:41:34;71460.75;;;17.93
64600;BMP280;6553;48.412;9.514;2022-11-22T00:43:59;71456.81;;;17.94
64600;BMP280;6553;48.412;9.514;2022-11-22T00:46:25;71455.75;;;17.93
64600;BMP280;6553;48.412;9.514;2022-11-22T00:48:51;71454.69;;;17.92
64600;BMP280;6553;48.412;9.514;2022-11-22T00:51:17;71462.34;;;17.94
64600;BMP280;6553;48.412;9.514;2022-11-22T00:53:43;71460.13;;;17.95
64600;BMP280;6553;48.412;9.514;2022-11-22T00:56:08;71456.81;;;17.94
64600;BMP280;6553;48.412;9.514;2022-11-22T00:58:34;71460.22;;;17.92
64600;BMP280;6553;48.412;9.514;2022-11-22T01:01:00;71454.69;;;17.92
64600;BMP280;6553;48.412;9.514;2022-11-22T01:03:25;71456.28;;;17.94
64600;BMP280;6553;48.412;9.514;2022-11-22T01:05:51;71455.75;;;17.93
64600;BMP280;6553;48.412;9.514;2022-11-22T01:08:17;71455.75;;;17.93
64600;BMP280;6553;48.412;9.514;2022-11-22T01:10:43;71455.75;;;17.93
64600;BMP280;6553;48.412;9.514;2022-11-22T01:13:10;71456.38;;;17.91
64600;BMP280;6553;48.412;9.514;2022-11-22T01:15:36;71461.28;;;17.93
64600;BMP280;6553;48.412;9.514;2022-11-22T01:18:02;71453.63;;;17.91
64600;BMP280;6553;48.412;9.514;2022-11-22T01:20:28;71460.22;;;17.92
64600;BMP280;6553;48.412;9.514;2022-11-22T01:22:56;71442.06;;;17.91
64600;BMP280;6553;48.412;9.514;2022-11-22T01:25:22;71458.50;;;17.93
64600;BMP280;6553;48.412;9.514;2022-11-22T01:27:48;71459.16;;;17.91
64600;BMP280;6553;48.412;9.514;2022-11-22T01:30:16;71453.63;;;17.91
64600;BMP280;6553;48.412;9.514;2022-11-22T01:32:42;71456.28;;;17.94
64600;BMP280;6553;48.412;9.514;2022-11-22T01:35:08;71456.28;;;17.94
64600;BMP280;6553;48.412;9.514;2022-11-22T01:37:34;71462.34;;;17.94
64600;BMP280;6553;48.412;9.514;2022-11-22T01:40:00;71455.75;;;17.93
64600;BMP280;6553;48.412;9.514;2022-11-22T01:42:50;71462.34;;;17.94
64600;BMP280;6553;48.412;9.514;2022-11-22T01:48:03;71455.22;;;17.93
64600;BMP280;6553;48.412;9.514;2022-11-22T01:50:34;71458.50;;;17.93
64600;BMP280;6553;48.412;9.514;2022-11-22T01:53:06;71456.94;;;17.92
64600;BMP280;6553;48.412;9.514;2022-11-22T01:55:34;71455.75;;;17.93
64600;BMP280;6553;48.412;9.514;2022-11-22T01:58:01;71455.75;;;17.93
64600;BMP280;6553;48.412;9.514;2022-11-22T02:00:27;71455.22;;;17.93
64600;BMP280;6553;48.412;9.514;2022-11-22T02:02:58;71460.22;;;17.92
64600;BMP280;6553;48.412;9.514;2022-11-22T02:05:29;71464.03;;;17.93
64600;BMP280;6553;48.412;9.514;2022-11-22T02:08:11;71458.41;;;17.96
64600;BMP280;6553;48.412;9.514;2022-11-22T02:10:43;71456.81;;;17.94
64600;BMP280;6553;48.412;9.514;2022-11-22T02:13:13;71458.41;;;17.96
64600;BMP280;6553;48.412;9.514;2022-11-22T02:15:40;71463.94;;;17.96
64600;BMP280;6553;48.412;9.514;2022-11-22T02:18:06;71459.59;;;17.94
64600;BMP280;6553;48.412;9.514;2022-11-22T02:20:32;71461.81;;;17.94
64600;BMP280;6553;48.412;9.514;2022-11-22T02:23:23;71461.28;;;17.93
64600;BMP280;6553;48.412;9.514;2022-11-22T02:25:56;71458.50;;;17.93
64600;BMP280;6553;48.412;9.514;2022-11-22T02:28:22;71455.75;;;17.93
64600;BMP280;6553;48.412;9.514;2022-11-22T02:30:48;71457.34;;;17.95
64600;BMP280;6553;48.412;9.514;2022-11-22T02:33:14;71457.88;;;17.95
64600;BMP280;6553;48.412;9.514;2022-11-22T02:35:40;71460.63;;;17.95
64600;BMP280;6553;48.412;9.514;2022-11-22T02:38:12;71459.59;;;17.94
64600;BMP280;6553;48.412;9.514;2022-11-22T02:40:46;71459.59;;;17.94
64600;BMP280;6553;48.412;9.514;2022-11-22T02:43:22;71462.88;;;17.95
64600;BMP280;6553;48.412;9.514;2022-11-22T02:45:49;71460.63;;;17.95
64600;BMP280;6553;48.412;9.514;2022-11-22T02:48:16;71462.88;;;17.95
64600;BMP280;6553;48.412;9.514;2022-11-22T02:50:43;71460.13;;;17.95
64600;BMP280;6553;48.412;9.514;2022-11-22T02:53:10;71461.28;;;17.93
64600;BMP280;6553;48.412;9.514;2022-11-22T02:55:37;71461.28;;;17.93
64600;BMP280;6553;48.412;9.514;2022-11-22T02:58:04;71457.47;;;17.92
64600;BMP280;6553;48.412;9.514;2022-11-22T03:00:34;71456.28;;;17.94
64600;BMP280;6553;48.412;9.514;2022-11-22T03:03:01;71454.69;;;17.92
64600;BMP280;6553;48.412;9.514;2022-11-22T03:05:26;71455.22;;;17.93
64600;BMP280;6553;48.412;9.514;2022-11-22T03:07:52;71460.75;;;17.93
64600;BMP280;6553;48.412;9.514;2022-11-22T03:10:18;71461.81;;;17.94
64600;BMP280;6553;48.412;9.514;2022-11-22T03:12:44;71454.69;;;17.92
64600;BMP280;6553;48.412;9.514;2022-11-22T03:15:10;71456.28;;;17.94
64600;BMP280;6553;48.412;9.514;2022-11-22T03:17:36;71459.59;;;17.94
64600;BMP280;6553;48.412;9.514;2022-11-22T03:20:03;71465.09;;;17.94
64600;BMP280;6553;48.412;9.514;2022-11-22T03:22:29;71457.47;;;17.92
64600;BMP280;6553;48.412;9.514;2022-11-22T03:24:55;71455.84;;;17.91
64600;BMP280;6553;48.412;9.514;2022-11-22T03:27:21;71463.41;;;17.95
64600;BMP280;6553;48.412;9.514;2022-11-22T03:29:46;71460.75;;;17.93
64600;BMP280;6553;48.412;9.514;2022-11-22T03:32:12;71455.75;;;17.93
64600;BMP280;6553;48.412;9.514;2022-11-22T03:34:38;71455.75;;;17.93
64600;BMP280;6553;48.412;9.514;2022-11-22T03:37:04;71460.75;;;17.93
64600;BMP280;6553;48.412;9.514;2022-11-22T03:39:29;71462.34;;;17.94
64600;BMP280;6553;48.412;9.514;2022-11-22T03:41:55;71460.75;;;17.93
64600;BMP280;6553;48.412;9.514;2022-11-22T03:44:22;71456.38;;;17.91
64600;BMP280;6553;48.412;9.514;2022-11-22T03:46:48;71458.50;;;17.93
64600;BMP280;6553;48.412;9.514;2022-11-22T03:49:14;71460.63;;;17.95
64600;BMP280;6553;48.412;9.514;2022-11-22T03:51:39;71456.28;;;17.94
64600;BMP280;6553;48.412;9.514;2022-11-22T03:54:05;71456.28;;;17.94
64600;BMP280;6553;48.412;9.514;2022-11-22T03:56:31;71454.16;;;17.92
64600;BMP280;6553;48.412;9.514;2022-11-22T03:58:57;71462.44;;;17.92
64600;BMP280;6553;48.412;9.514;2022-11-22T04:01:22;71454.69;;;17.92
64600;BMP280;6553;48.412;9.514;2022-11-22T04:03:48;71458.50;;;17.93
64600;BMP280;6553;48.412;9.514;2022-11-22T04:06:14;71453.63;;;17.91
64600;BMP280;6553;48.412;9.514;2022-11-22T04:08:40;71449.91;;;17.88
64600;BMP280;6553;48.412;9.514;2022-11-22T04:11:05;71449.91;;;17.88
64600;BMP280;6553;48.412;9.514;2022-11-22T04:13:31;71456.38;;;17.91
64600;BMP280;6553;48.412;9.514;2022-11-22T04:16:15;71460.75;;;17.93
64600;BMP280;6553;48.412;9.514;2022-11-22T04:18:41;71455.22;;;17.93
64600;BMP280;6553;48.412;9.514;2022-11-22T04:21:07;71459.06;;;17.94
64600;BMP280;6553;48.412;9.514;2022-11-22T04:23:51;71454.69;;;17.92
64600;BMP280;6553;48.412;9.514;2022-11-22T04:26:37;71455.75;;;17.93
64600;BMP280;6553;48.412;9.514;2022-11-22T04:29:03;71458.50;;;17.93
64600;BMP280;6553;48.412;9.514;2022-11-22T04:31:29;71446.94;;;17.93
64600;BMP280;6553;48.412;9.514;2022-11-22T04:34:13;71459.69;;;17.92
64600;BMP280;6553;48.412;9.514;2022-11-22T04:36:39;71453.09;;;17.91
64600;BMP280;6553;48.412;9.514;2022-11-22T04:39:04;71453.09;;;17.91
64600;BMP280;6553;48.412;9.514;2022-11-22T04:41:30;71453.63;;;17.91
64600;BMP280;6553;48.412;9.514;2022-11-22T04:43:56;71453.63;;;17.91
64600;BMP280;6553;48.412;9.514;2022-11-22T04:46:40;71450.47;;;17.88
64600;BMP280;6553;48.412;9.514;2022-11-22T04:49:06;71455.22;;;17.93
64600;BMP280;6553;48.412;9.514;2022-11-22T04:51:31;71449.38;;;17.87
64600;BMP280;6553;48.412;9.514;2022-11-22T04:54:16;71461.81;;;17.94
64600;BMP280;6553;48.412;9.514;2022-11-22T04:56:41;71460.22;;;17.92
64600;BMP280;6553;48.412;9.514;2022-11-22T04:59:07;71462.34;;;17.94
64600;BMP280;6553;48.412;9.514;2022-11-22T05:01:33;71458.50;;;17.93
64600;BMP280;6553;48.412;9.514;2022-11-22T05:03:59;71459.16;;;17.91
64600;BMP280;6553;48.412;9.514;2022-11-22T05:06:24;71455.75;;;17.93
64600;BMP280;6553;48.412;9.514;2022-11-22T05:08:50;71458.09;;;17.90
64600;BMP280;6553;48.412;9.514;2022-11-22T05:11:16;71462.97;;;17.92
64600;BMP280;6553;48.412;9.514;2022-11-22T05:13:43;71452.56;;;17.90
64600;BMP280;6553;48.412;9.514;2022-11-22T05:16:12;71458.50;;;17.93
64600;BMP280;6553;48.412;9.514;2022-11-22T05:18:39;71458.63;;;17.91
64600;BMP280;6553;48.412;9.514;2022-11-22T05:21:10;71455.22;;;17.93
64600;BMP280;6553;48.412;9.514;2022-11-22T05:23:36;71455.34;;;17.90
64600;BMP280;6553;48.412;9.514;2022-11-22T05:26:32;71455.22;;;17.93
64600;BMP280;6553;48.412;9.514;2022-11-22T05:29:02;71458.50;;;17.93
64600;BMP280;6553;48.412;9.514;2022-11-22T05:31:28;71454.28;;;17.89
64600;BMP280;6553;48.412;9.514;2022-11-22T05:33:55;71462.34;;;17.94
64600;BMP280;6553;48.412;9.514;2022-11-22T05:36:22;71460.22;;;17.92
64600;BMP280;6553;48.412;9.514;2022-11-22T05:38:49;71454.16;;;17.92
64600;BMP280;6553;48.412;9.514;2022-11-22T05:41:16;71462.97;;;17.92
64600;BMP280;6553;48.412;9.514;2022-11-22T05:43:42;71454.16;;;17.92
64600;BMP280;6553;48.412;9.514;2022-11-22T05:46:21;71456.94;;;17.92
64600;BMP280;6553;48.412;9.514;2022-11-22T05:48:47;71455.84;;;17.91
64600;BMP280;6553;48.412;9.514;2022-11-22T05:51:16;71455.97;;;17.88
64600;BMP280;6553;48.412;9.514;2022-11-22T05:53:43;71453.63;;;17.91
64600;BMP280;6553;48.412;9.514;2022-11-22T05:56:12;71455.84;;;17.91
64600;BMP280;6553;48.412;9.514;2022-11-22T05:58:38;71452.56;;;17.90
64600;BMP280;6553;48.412;9.514;2022-11-22T06:01:14;71458.63;;;17.91
64600;BMP280;6553;48.412;9.514;2022-11-22T06:03:40;71460.22;;;17.92
64600;BMP280;6553;48.412;9.514;2022-11-22T06:06:07;71455.84;;;17.91
64600;BMP280;6553;48.412;9.514;2022-11-22T06:08:37;71458.63;;;17.91
64600;BMP280;6553;48.412;9.514;2022-11-22T06:11:23;71454.69;;;17.92
64600;BMP280;6553;48.412;9.514;2022-11-22T06:14:00;71462.97;;;17.92
64600;BMP280;6553;48.412;9.514;2022-11-22T06:16:29;71454.16;;;17.92
64600;BMP280;6553;48.412;9.514;2022-11-22T06:18:55;71455.22;;;17.93
64600;BMP280;6553;48.412;9.514;2022-11-22T06:21:24;71461.28;;;17.93
64600;BMP280;6553;48.412;9.514;2022-11-22T06:23:52;71458.09;;;17.90
64600;BMP280;6553;48.412;9.514;2022-11-22T06:26:20;71452.03;;;17.90
64600;BMP280;6553;48.412;9.514;2022-11-22T06:28:47;71452.56;;;17.90
64600;BMP280;6553;48.412;9.514;2022-11-22T06:31:17;71458.09;;;17.90
64600;BMP280;6553;48.412;9.514;2022-11-22T06:33:44;71455.84;;;17.91
64600;BMP280;6553;48.412;9.514;2022-11-22T06:36:16;71454.16;;;17.92
64600;BMP280;6553;48.412;9.514;2022-11-22T06:38:43;71460.22;;;17.92
64600;BMP280;6553;48.412;9.514;2022-11-22T06:41:13;71455.84;;;17.91
64600;BMP280;6553;48.412;9.514;2022-11-22T06:43:42;71457.97;;;17.93
64600;BMP280;6553;48.412;9.514;2022-11-22T06:46:10;71465.22;;;17.92
64600;BMP280;6553;48.412;9.514;2022-11-22T06:48:38;71456.38;;;17.91
64600;BMP280;6553;48.412;9.514;2022-11-22T06:51:11;71454.16;;;17.92
64600;BMP280;6553;48.412;9.514;2022-11-22T06:53:38;71457.03;;;17.89
64600;BMP280;6553;48.412;9.514;2022-11-22T06:56:09;71455.75;;;17.93
64600;BMP280;6553;48.412;9.514;2022-11-22T06:58:36;71456.38;;;17.91
64600;BMP280;6553;48.412;9.514;2022-11-22T07:01:08;71453.63;;;17.91
64600;BMP280;6553;48.412;9.514;2022-11-22T07:03:36;71455.34;;;17.90
64600;BMP280;6553;48.412;9.514;2022-11-22T07:06:04;71455.34;;;17.90
64600;BMP280;6553;48.412;9.514;2022-11-22T07:08:30;71455.34;;;17.90
64600;BMP280;6553;48.412;9.514;2022-11-22T07:11:02;71456.50;;;17.89
64600;BMP280;6553;48.412;9.514;2022-11-22T07:13:28;71449.91;;;17.88
64600;BMP280;6553;48.412;9.514;2022-11-22T07:15:59;71458.09;;;17.90
64600;BMP280;6553;48.412;9.514;2022-11-22T07:18:25;71456.94;;;17.92
64600;BMP280;6553;48.412;9.514;2022-11-22T07:20:52;71456.38;;;17.91
64600;BMP280;6553;48.412;9.514;2022-11-22T07:23:18;71460.88;;;17.90
64600;BMP280;6553;48.412;9.514;2022-11-22T07:25:45;71457.56;;;17.90
64600;BMP280;6553;48.412;9.514;2022-11-22T07:28:12;71455.84;;;17.91
64600;BMP280;6553;48.412;9.514;2022-11-22T07:30:39;71444.19;;;17.93
64600;BMP280;6553;48.412;9.514;2022-11-22T07:33:05;71450.47;;;17.88
64600;BMP280;6553;48.412;9.514;2022-11-22T07:35:31;71452.56;;;17.90
64600;BMP280;6553;48.412;9.514;2022-11-22T07:37:57;71455.34;;;17.90
64600;BMP280;6553;48.412;9.514;2022-11-22T07:40:23;71461.38;;;17.91
64600;BMP280;6553;48.412;9.514;2022-11-22T07:42:48;71454.28;;;17.89
64600;BMP280;6553;48.412;9.514;2022-11-22T07:45:14;71451.50;;;17.89
64600;BMP280;6553;48.412;9.514;2022-11-22T07:47:40;71454.28;;;17.89
64600;BMP280;6553;48.412;9.514;2022-11-22T07:50:06;71459.16;;;17.91
64600;BMP280;6553;48.412;9.514;2022-11-22T07:52:32;71455.34;;;17.90
64600;BMP280;6553;48.412;9.514;2022-11-22T07:54:58;71453.09;;;17.91
64600;BMP280;6553;48.412;9.514;2022-11-22T07:57:24;71454.28;;;17.89
64600;BMP280;6553;48.412;9.514;2022-11-22T07:59:50;71456.94;;;17.92
64600;BMP280;6553;48.412;9.514;2022-11-22T08:02:16;71458.09;;;17.90
64600;BMP280;6553;48.412;9.514;2022-11-22T08:04:42;71451.50;;;17.89
64600;BMP280;6553;48.412;9.514;2022-11-22T08:07:07;71459.69;;;17.92
64600;BMP280;6553;48.412;9.514;2022-11-22T08:09:34;71457.47;;;17.92
64600;BMP280;6553;48.412;9.514;2022-11-22T08:12:01;71455.75;;;17.93
64600;BMP280;6553;48.412;9.514;2022-11-22T08:14:27;71464.13;;;17.91
64600;BMP280;6553;48.412;9.514;2022-11-22T08:16:53;71454.16;;;17.92
64600;BMP280;6553;48.412;9.514;2022-11-22T08:19:19;71455.75;;;17.93
64600;BMP280;6553;48.412;9.514;2022-11-22T08:21:47;71456.38;;;17.91
64600;BMP280;6553;48.412;9.514;2022-11-22T08:24:14;71457.56;;;17.90
64600;BMP280;6553;48.412;9.514;2022-11-22T08:26:41;71459.16;;;17.91
64600;BMP280;6553;48.412;9.514;2022-11-22T08:29:11;71456.94;;;17.92
64600;BMP280;6553;48.412;9.514;2022-11-22T08:31:38;71462.34;;;17.94
64600;BMP280;6553;48.412;9.514;2022-11-22T08:34:05;71455.84;;;17.91
64600;BMP280;6553;48.412;9.514;2022-11-22T08:36:31;71462.34;;;17.94
64600;BMP280;6553;48.412;9.514;2022-11-22T08:38:57;71460.75;;;17.93
64600;BMP280;6553;48.412;9.514;2022-11-22T08:41:23;71459.59;;;17.94
64600;BMP280;6553;48.412;9.514;2022-11-22T08:43:51;71456.81;;;17.94
64600;BMP280;6553;48.412;9.514;2022-11-22T08:46:18;71455.75;;;17.93
64600;BMP280;6553;48.412;9.514;2022-11-22T08:48:44;71455.75;;;17.93
64600;BMP280;6553;48.412;9.514;2022-11-22T08:51:13;71462.34;;;17.94
64600;BMP280;6553;48.412;9.514;2022-11-22T08:53:41;71460.63;;;17.95
64600;BMP280;6553;48.412;9.514;2022-11-22T08:56:13;71466.16;;;17.95
64600;BMP280;6553;48.412;9.514;2022-11-22T08:58:39;71460.63;;;17.95
64600;BMP280;6553;48.412;9.514;2022-11-22T09:01:13;71456.81;;;17.94
64600;BMP280;6553;48.412;9.514;2022-11-22T09:03:41;71458.41;;;17.96
64600;BMP280;6553;48.412;9.514;2022-11-22T09:06:13;71459.47;;;17.97
64600;BMP280;6553;48.412;9.514;2022-11-22T09:08:40;71460.00;;;17.97
64600;BMP280;6553;48.412;9.514;2022-11-22T09:11:10;71462.75;;;17.97
64600;BMP280;6553;48.412;9.514;2022-11-22T09:13:37;71464.44;;;17.96
64600;BMP280;6553;48.412;9.514;2022-11-22T09:16:07;71459.47;;;17.97
64600;BMP280;6553;48.412;9.514;2022-11-22T09:18:34;71461.06;;;17.98
64600;BMP280;6553;48.412;9.514;2022-11-22T09:21:27;71461.16;;;17.96
64600;BMP280;6553;48.412;9.514;2022-11-22T09:23:53;71464.44;;;17.96
64600;BMP280;6553;48.412;9.514;2022-11-22T09:26:23;71457.34;;;17.95
64600;BMP280;6553;48.412;9.514;2022-11-22T09:28:51;71458.94;;;17.96
64600;BMP280;6553;48.412;9.514;2022-11-22T09:31:21;71463.28;;;17.98
64600;BMP280;6553;48.412;9.514;2022-11-22T09:33:48;71464.44;;;17.96
64600;BMP280;6553;48.412;9.514;2022-11-22T09:36:21;71461.06;;;17.98
64600;BMP280;6553;48.412;9.514;2022-11-22T09:38:48;71459.47;;;17.97
64600;BMP280;6553;48.412;9.514;2022-11-22T09:46:55;71463.28;;;17.98
64600;BMP280;6553;48.412;9.514;2022-11-22T09:52:43;71469.34;;;17.98
64600;BMP280;6553;48.412;9.514;2022-11-22T09:55:24;71464.38;;;17.99
64600;BMP280;6553;48.412;9.514;2022-11-22T10:00:38;71464.91;;;17.99
64600;BMP280;6553;48.412;9.514;2022-11-22T10:03:11;71468.16;;;18.00
64600;BMP280;6553;48.412;9.514;2022-11-22T10:05:53;71469.88;;;17.99
64600;BMP280;6553;48.412;9.514;2022-11-22T10:08:56;71464.38;;;17.99
64600;BMP280;6553;48.412;9.514;2022-11-22T10:11:39;71468.69;;;18.00
64600;BMP280;6553;48.412;9.514;2022-11-22T10:17:40;71472.00;;;18.01
64600;BMP280;6553;48.412;9.514;2022-11-22T10:22:46;71468.06;;;18.02
64600;BMP280;6553;48.412;9.514;2022-11-22T10:25:23;71466.47;;;18.01
64600;BMP280;6553;48.412;9.514;2022-11-22T10:27:59;71465.31;;;18.02
64600;BMP280;6553;48.412;9.514;2022-11-22T10:30:34;71472.97;;;18.04
64600;BMP280;6553;48.412;9.514;2022-11-22T10:33:18;71467.94;;;18.05
64600;BMP280;6553;48.412;9.514;2022-11-22T10:39:02;71471.88;;;18.03
64600;BMP280;6553;48.412;9.514;2022-11-22T10:42:01;71455.84;;;18.04
64600;BMP280;6553;48.412;9.514;2022-11-22T10:50:25;71474.66;;;18.03
64600;BMP280;6553;48.412;9.514;2022-11-22T10:58:53;71466.91;;;18.04
64600;BMP280;6553;48.412;9.514;2022-11-22T11:02:06;71472.44;;;18.04
64600;BMP280;6553;48.412;9.514;2022-11-22T11:04:38;71471.88;;;18.03
64600;BMP280;6553;48.412;9.514;2022-11-22T11:07:11;71467.94;;;18.05
64600;BMP280;6553;48.412;9.514;2022-11-22T11:09:49;71469.56;;;18.06
64600;BMP280;6553;48.412;9.514;2022-11-22T11:12:52;71474.53;;;18.06
64600;BMP280;6553;48.412;9.514;2022-11-22T11:15:36;71478.34;;;18.07
64600;BMP280;6553;48.412;9.514;2022-11-22T11:18:23;71470.19;;;18.04
64600;BMP280;6553;48.412;9.514;2022-11-22T11:20:51;71466.91;;;18.04
64600;BMP280;6553;48.412;9.514;2022-11-22T11:23:18;71472.97;;;18.04
64600;BMP280;6553;48.412;9.514;2022-11-22T11:25:47;71467.94;;;18.05
64600;BMP280;6553;48.412;9.514;2022-11-22T11:28:21;71474.53;;;18.06
64600;BMP280;6553;48.412;9.514;2022-11-22T11:30:55;71467.44;;;18.04
64600;BMP280;6553;48.412;9.514;2022-11-22T11:33:34;71477.84;;;18.06
64600;BMP280;6553;48.412;9.514;2022-11-22T11:36:20;71476.13;;;18.07
64600;BMP280;6553;48.412;9.514;2022-11-22T11:38:56;71472.31;;;18.06
64600;BMP280;6553;48.412;9.514;2022-11-22T11:44:03;71470.06;;;18.07
64600;BMP280;6553;48.412;9.514;2022-11-22T11:46:45;71471.25;;;18.05
64600;BMP280;6553;48.412;9.514;2022-11-22T11:49:16;71469.56;;;18.06
64600;BMP280;6553;48.412;9.514;2022-11-22T11:51:46;71477.22;;;18.08
64600;BMP280;6553;48.412;9.514;2022-11-22T11:54:41;71474.97;;;18.09
64600;BMP280;6553;48.412;9.514;2022-11-22T11:57:32;71475.09;;;18.06
64600;BMP280;6553;48.412;9.514;2022-11-22T12:00:03;71470.06;;;18.07
64600;BMP280;6553;48.412;9.514;2022-11-22T12:02:41;71474.44;;;18.08
64600;BMP280;6553;48.412;9.514;2022-11-22T12:05:30;71470.63;;;18.07
64600;BMP280;6553;48.412;9.514;2022-11-22T12:07:56;71472.31;;;18.06
64600;BMP280;6553;48.412;9.514;2022-11-22T12:10:49;71473.25;;;18.10
64600;BMP280;6553;48.412;9.514;2022-11-22T12:13:32;71478.25;;;18.09
64600;BMP280;6553;48.412;9.514;2022-11-22T12:16:28;71472.72;;;18.09
64600;BMP280;6553;48.412;9.514;2022-11-22T12:24:59;71474.97;;;18.09
64600;BMP280;6553;48.412;9.514;2022-11-22T12:27:25;71472.22;;;18.09
64600;BMP280;6553;48.412;9.514;2022-11-22T12:29:52;71474.00;;;18.05
64600;BMP280;6553;48.412;9.514;2022-11-22T12:32:34;71471.69;;;18.08
64600;BMP280;6553;48.412;9.514;2022-11-22T12:35:14;71477.22;;;18.08
64600;BMP280;6553;48.412;9.514;2022-11-22T12:37:52;71478.25;;;18.09
64600;BMP280;6553;48.412;9.514;2022-11-22T12:40:24;71471.16;;;18.08
64600;BMP280;6553;48.412;9.514;2022-11-22T12:43:06;71473.38;;;18.07
64600;BMP280;6553;48.412;9.514;2022-11-22T12:45:39;71472.72;;;18.09
64600;BMP280;6553;48.412;9.514;2022-11-22T12:51:02;71477.22;;;18.08
64600;BMP280;6553;48.412;9.514;2022-11-22T12:53:35;71476.53;;;18.10
64600;BMP280;6553;48.412;9.514;2022-11-22T12:56:14;71471.69;;;18.08
64600;BMP280;6553;48.412;9.514;2022-11-22T12:59:04;71473.38;;;18.07
64600;BMP280;6553;48.412;9.514;2022-11-22T13:09:23;71474.44;;;18.08
64600;BMP280;6553;48.412;9.514;2022-11-22T13:14:47;71472.31;;;18.06
64600;BMP280;6553;48.412;9.514;2022-11-22T13:17:17;71469.56;;;18.06
64600;BMP280;6553;48.412;9.514;2022-11-22T13:20:05;71475.59;;;18.07
64600;BMP280;6553;48.412;9.514;2022-11-22T13:23:23;71471.69;;;18.08
64600;BMP280;6553;48.412;9.514;2022-11-22T13:28:36;71473.38;;;18.07
64600;BMP280;6553;48.412;9.514;2022-11-22T13:33:38;71476.66;;;18.08
64600;BMP280;6553;48.412;9.514;2022-11-22T13:36:35;71472.31;;;18.06
64600;BMP280;6553;48.412;9.514;2022-11-22T13:39:16;71471.69;;;18.08
64600;BMP280;6553;48.412;9.514;2022-11-22T13:41:59;71472.84;;;18.07
64600;BMP280;6553;48.412;9.514;2022-11-22T13:52:08;71471.78;;;18.06
64600;BMP280;6553;48.412;9.514;2022-11-22T13:57:36;71477.09;;;18.11
64600;BMP280;6553;48.412;9.514;2022-11-22T14:02:46;71477.22;;;18.08
64600;BMP280;6553;48.412;9.514;2022-11-22T14:05:31;71472.84;;;18.07
64600;BMP280;6553;48.412;9.514;2022-11-22T14:08:00;71475.94;;;18.12
64600;BMP280;6553;48.412;9.514;2022-11-22T14:13:55;71478.25;;;18.09
64600;BMP280;6553;48.412;9.514;2022-11-22T14:19:39;71473.91;;;18.08
64600;BMP280;6553;48.412;9.514;2022-11-22T14:30:51;71475.59;;;18.07
64600;BMP280;6553;48.412;9.514;2022-11-22T14:33:24;71467.94;;;18.05
64600;BMP280;6553;48.412;9.514;2022-11-22T14:38:46;71468.50;;;18.05
64600;BMP280;6553;48.412;9.514;2022-11-22T14:44:30;71465.84;;;18.03
64600;BMP280;6553;48.412;9.514;2022-11-22T14:49:49;71463.72;;;18.01
64600;BMP280;6553;48.412;9.514;2022-11-22T14:52:30;71470.19;;;18.04
64600;BMP280;6553;48.412;9.514;2022-11-22T14:55:04;71471.38;;;18.03
64600;BMP280;6553;48.412;9.514;2022-11-22T14:57:33;71468.06;;;18.02
64600;BMP280;6553;48.412;9.514;2022-11-22T15:00:23;71464.78;;;18.02
64600;BMP280;6553;48.412;9.514;2022-11-22T15:03:12;71466.38;;;18.03
64600;BMP280;6553;48.412;9.514;2022-11-22T15:17:53;71468.69;;;18.00
64600;BMP280;6553;48.412;9.514;2022-11-22T15:23:17;71463.16;;;18.00
64600;BMP280;6553;48.412;9.514;2022-11-22T15:25:47;71467.66;;;17.99
64600;BMP280;6553;48.412;9.514;2022-11-22T15:28:20;71462.13;;;17.99
64600;BMP280;6553;48.412;9.514;2022-11-22T15:30:49;71464.91;;;17.99
64600;BMP280;6553;48.412;9.514;2022-11-22T15:33:24;71466.06;;;17.98
64600;BMP280;6553;48.412;9.514;2022-11-22T15:39:15;71467.13;;;17.99
64600;BMP280;6553;48.412;9.514;2022-11-22T15:41:48;71460.53;;;17.98
64600;BMP280;6553;48.412;9.514;2022-11-22T15:44:15;71464.44;;;17.96
64600;BMP280;6553;48.412;9.514;2022-11-22T15:46:43;71464.38;;;17.99
64600;BMP280;6553;48.412;9.514;2022-11-22T15:49:16;71462.22;;;17.97
64600;BMP280;6553;48.412;9.514;2022-11-22T15:51:57;71461.06;;;17.98
64600;BMP280;6553;48.412;9.514;2022-11-22T15:54:36;71457.88;;;17.95
64600;BMP280;6553;48.412;9.514;2022-11-22T15:57:23;71459.47;;;17.97
64600;BMP280;6553;48.412;9.514;2022-11-22T15:59:50;71459.47;;;17.97
64600;BMP280;6553;48.412;9.514;2022-11-22T16:02:23;71461.16;;;17.96
64600;BMP280;6553;48.412;9.514;2022-11-22T16:05:02;71457.88;;;17.95
64600;BMP280;6553;48.412;9.514;2022-11-22T16:10:07;71462.22;;;17.97
64600;BMP280;6553;48.412;9.514;2022-11-22T16:12:41;71458.94;;;17.96
64600;BMP280;6553;48.412;9.514;2022-11-22T16:15:28;71458.94;;;17.96
64600;BMP280;6553;48.412;9.514;2022-11-22T16:20:35;71456.81;;;17.94
64600;BMP280;6553;48.412;9.514;2022-11-22T16:25:45;71461.16;;;17.96
64600;BMP280;6553;48.412;9.514;2022-11-22T16:28:31;71464.44;;;17.96
64600;BMP280;6553;48.412;9.514;2022-11-22T16:31:25;71457.34;;;17.95
64600;BMP280;6553;48.412;9.514;2022-11-22T16:33:54;71458.41;;;17.96
64600;BMP280;6553;48.412;9.514;2022-11-22T16:36:23;71462.34;;;17.94
64600;BMP280;6553;48.412;9.514;2022-11-22T16:38:49;71462.88;;;17.95
64600;BMP280;6553;48.412;9.514;2022-11-22T16:41:27;71459.59;;;17.94
64600;BMP280;6553;48.412;9.514;2022-11-22T16:43:58;71457.47;;;17.92
64600;BMP280;6553;48.412;9.514;2022-11-22T16:46:24;71457.88;;;17.95
64600;BMP280;6553;48.412;9.514;2022-11-22T16:48:51;71457.88;;;17.95